createdAt,value
2018-06-21T00:00:44.425Z,5.20
2018-06-21T00:03:16.488Z,5.50
2018-06-21T00:05:48.632Z,5.23
2018-06-21T00:08:20.784Z,6.20
2018-06-21T00:10:52.952Z,5.40
2018-06-21T00:13:25.107Z,5.27
2018-06-21T00:15:57.275Z,5.07
2018-06-21T00:18:29.422Z,5.17
2018-06-21T00:21:01.903Z,4.50
2018-06-21T00:23:34.005Z,5.80
2018-06-21T00:26:06.189Z,5.00
2018-06-21T00:28:38.403Z,4.93
2018-06-21T00:31:10.947Z,5.47
2018-06-21T00:33:43.078Z,5.40
2018-06-21T00:36:15.396Z,5.67
2018-06-21T00:38:47.558Z,4.90
2018-06-21T00:41:19.679Z,5.23
2018-06-21T00:43:51.835Z,5.50
2018-06-21T00:46:23.924Z,5.03
2018-06-21T00:48:55.980Z,5.33
2018-06-21T00:51:28.086Z,5.00
2018-06-21T00:54:00.196Z,5.80
2018-06-21T00:56:32.263Z,5.67
2018-06-21T00:59:04.472Z,5.77
2018-06-21T01:01:36.560Z,6.10
2018-06-21T01:04:08.689Z,6.13
2018-06-21T01:06:40.783Z,5.30
2018-06-21T01:09:12.783Z,5.43
2018-06-21T01:11:44.863Z,5.80
2018-06-21T01:14:16.916Z,5.77
2018-06-21T01:16:48.983Z,5.57
2018-06-21T01:19:21.093Z,5.60
2018-06-21T01:21:53.168Z,5.80
2018-06-21T01:24:25.319Z,5.63
2018-06-21T01:26:57.475Z,6.17
2018-06-21T01:29:29.598Z,5.73
2018-06-21T01:32:01.957Z,6.73
2018-06-21T01:34:34.037Z,5.27
2018-06-21T01:37:06.191Z,6.53
2018-06-21T01:39:38.304Z,6.23
2018-06-21T01:42:10.581Z,5.90
2018-06-21T01:44:42.735Z,5.80
2018-06-21T01:47:14.853Z,5.90
2018-06-21T01:49:47.985Z,5.90
2018-06-21T01:52:20.109Z,6.30
2018-06-21T01:54:52.249Z,5.97
2018-06-21T01:57:24.507Z,6.00
2018-06-21T01:59:56.565Z,6.33
2018-06-21T02:02:28.661Z,6.27
2018-06-21T02:05:00.757Z,6.00
2018-06-21T02:07:33.004Z,6.67
2018-06-21T02:10:05.286Z,5.30
2018-06-21T02:12:37.724Z,5.63
2018-06-21T02:15:09.835Z,6.13
2018-06-21T02:17:41.889Z,5.10
2018-06-21T02:20:13.955Z,5.80
2018-06-21T02:22:46.143Z,5.70
2018-06-21T02:25:18.183Z,6.30
2018-06-21T02:27:50.324Z,6.13
2018-06-21T02:30:22.424Z,5.73
2018-06-21T02:32:54.483Z,5.63
2018-06-21T02:35:26.580Z,5.20
2018-06-21T02:37:58.686Z,6.60
2018-06-21T02:40:30.785Z,6.47
2018-06-21T02:43:03.004Z,5.77
2018-06-21T02:45:35.166Z,6.60
2018-06-21T02:48:07.255Z,6.47
2018-06-21T02:50:39.388Z,6.60
2018-06-21T02:53:11.492Z,6.87
2018-06-21T02:55:43.566Z,6.23
2018-06-21T02:58:15.603Z,7.10
2018-06-21T03:00:47.770Z,6.83
2018-06-21T03:03:19.822Z,6.70
2018-06-21T03:05:51.933Z,6.47
2018-06-21T03:08:23.983Z,6.60
2018-06-21T03:10:56.067Z,6.20
2018-06-21T03:13:28.167Z,6.80
2018-06-21T03:16:00.243Z,6.57
2018-06-21T03:18:32.388Z,7.07
2018-06-21T03:21:04.472Z,6.77
2018-06-21T03:23:36.563Z,6.47
2018-06-21T03:26:08.739Z,6.83
2018-06-21T03:28:40.851Z,5.80
2018-06-21T03:31:12.919Z,5.67
2018-06-21T03:33:44.995Z,6.30
2018-06-21T03:36:17.049Z,5.50
2018-06-21T03:38:49.127Z,6.97
2018-06-21T03:41:21.603Z,6.00
2018-06-21T03:43:53.670Z,6.90
2018-06-21T03:46:25.732Z,6.40
2018-06-21T03:48:57.772Z,6.93
2018-06-21T03:51:29.847Z,7.67
2018-06-21T03:54:01.919Z,7.10
2018-06-21T03:56:33.997Z,6.10
2018-06-21T03:59:06.204Z,6.90
2018-06-21T04:01:38.384Z,6.57
2018-06-21T04:04:10.558Z,6.50
2018-06-21T04:06:42.654Z,5.83
2018-06-21T04:09:14.740Z,7.40
2018-06-21T04:11:46.813Z,7.93
2018-06-21T04:14:18.955Z,6.87
2018-06-21T04:16:51.101Z,6.90
2018-06-21T04:19:23.148Z,7.00
2018-06-21T04:21:55.269Z,8.53
2018-06-21T04:24:27.361Z,6.50
2018-06-21T04:26:59.454Z,6.23
2018-06-21T04:29:31.504Z,6.73
2018-06-21T04:32:03.575Z,7.10
2018-06-21T04:34:35.728Z,7.10
2018-06-21T04:37:07.798Z,6.87
2018-06-21T04:39:39.868Z,6.43
2018-06-21T04:42:11.967Z,7.13
2018-06-21T04:44:44.141Z,6.50
2018-06-21T04:47:16.278Z,7.10
2018-06-21T04:49:48.389Z,7.60
2018-06-21T04:52:20.501Z,6.73
2018-06-21T04:54:52.597Z,6.87
2018-06-21T04:57:24.737Z,6.17
2018-06-21T04:59:56.893Z,6.17
2018-06-21T05:02:29.005Z,6.73
2018-06-21T05:05:01.101Z,6.73
2018-06-21T05:07:33.202Z,7.07
2018-06-21T05:10:05.461Z,6.60
2018-06-21T05:12:37.712Z,6.63
2018-06-21T05:15:09.957Z,7.50
2018-06-21T05:17:42.099Z,6.10
2018-06-21T05:20:14.247Z,6.37
2018-06-21T05:22:46.384Z,10.37
2018-06-21T05:25:18.466Z,7.60
2018-06-21T05:27:50.543Z,7.13
2018-06-21T05:30:22.683Z,6.90
2018-06-21T05:32:54.784Z,7.17
2018-06-21T05:35:26.898Z,7.50
2018-06-21T05:37:58.975Z,7.37
2018-06-21T05:40:32.212Z,6.90
2018-06-21T05:43:04.812Z,6.97
2018-06-21T05:45:36.908Z,6.70
2018-06-21T05:48:09.034Z,6.80
2018-06-21T05:50:41.242Z,7.40
2018-06-21T05:53:13.389Z,6.60
2018-06-21T05:55:45.623Z,7.73
2018-06-21T05:58:17.799Z,7.63
2018-06-21T06:00:57.901Z,7.97
2018-06-21T06:03:31.062Z,5.93
2018-06-21T06:06:03.222Z,6.90
2018-06-21T06:08:35.481Z,7.83
2018-06-21T06:11:09.462Z,7.30
2018-06-21T06:13:41.652Z,6.80
2018-06-21T06:16:13.731Z,6.63
2018-06-21T06:18:45.891Z,7.27
2018-06-21T06:21:18.209Z,7.00
2018-06-21T06:23:50.367Z,7.20
2018-06-21T06:26:22.448Z,7.33
2018-06-21T06:28:54.548Z,7.13
2018-06-21T06:31:26.667Z,7.77
2018-06-21T06:33:58.787Z,8.40
2018-06-21T06:36:32.368Z,6.80
2018-06-21T06:39:14.436Z,6.93
2018-06-21T06:41:49.679Z,7.30
2018-06-21T06:44:21.791Z,7.13
2018-06-21T06:46:54.212Z,7.33
2018-06-21T06:49:26.332Z,6.47
2018-06-21T06:51:58.443Z,6.03
2018-06-21T06:54:30.619Z,7.13
2018-06-21T06:57:02.809Z,5.60
2018-06-21T06:59:34.980Z,6.57
2018-06-21T07:02:07.114Z,5.60
2018-06-21T07:04:39.231Z,6.50
2018-06-21T07:07:11.355Z,5.40
2018-06-21T07:09:43.521Z,6.40
2018-06-21T07:12:15.612Z,5.53
2018-06-21T07:14:47.735Z,5.53
2018-06-21T07:17:19.755Z,5.80
2018-06-21T07:19:51.811Z,4.73
2018-06-21T07:22:23.903Z,5.17
2018-06-21T07:24:55.999Z,5.03
2018-06-21T07:27:28.082Z,6.07
2018-06-21T07:30:00.162Z,5.17
2018-06-21T07:32:32.203Z,9.37
2018-06-21T07:35:04.289Z,7.97
2018-06-21T07:37:36.419Z,6.43
2018-06-21T07:40:08.493Z,8.23
2018-06-21T07:42:40.631Z,5.23
2018-06-21T07:45:12.754Z,4.50
2018-06-21T07:47:44.923Z,4.40
2018-06-21T07:50:18.063Z,4.27
2018-06-21T07:52:50.157Z,6.37
2018-06-21T07:55:22.308Z,6.13
2018-06-21T07:57:54.451Z,4.83
2018-06-21T08:00:26.568Z,7.50
2018-06-21T08:02:58.731Z,6.03
2018-06-21T08:05:30.874Z,5.40
2018-06-21T08:08:03.797Z,5.83
2018-06-21T08:10:35.887Z,4.93
2018-06-21T08:13:09.131Z,4.60
2018-06-21T08:15:41.206Z,4.40
2018-06-21T08:18:13.569Z,6.40
2018-06-21T08:20:45.669Z,4.40
2018-06-21T08:23:17.858Z,4.53
2018-06-21T08:25:49.967Z,9.37
2018-06-21T08:28:22.031Z,5.20
2018-06-21T08:30:54.126Z,4.30
2018-06-21T08:33:26.270Z,5.20
2018-06-21T08:35:58.511Z,3.90
2018-06-21T08:38:30.612Z,3.83
2018-06-21T08:41:02.763Z,4.00
2018-06-21T08:43:35.480Z,3.83
2018-06-21T08:46:07.898Z,4.03
2018-06-21T08:48:40.092Z,3.57
2018-06-21T08:51:12.200Z,3.73
2018-06-21T08:53:44.342Z,3.23
2018-06-21T08:56:16.463Z,3.53
2018-06-21T08:58:49.013Z,5.10
2018-06-21T09:01:21.124Z,3.93
2018-06-21T09:03:53.259Z,4.03
2018-06-21T09:06:25.320Z,3.90
2018-06-21T09:08:57.427Z,4.03
2018-06-21T09:11:30.514Z,4.43
2018-06-21T09:14:02.671Z,4.87
2018-06-21T09:16:35.929Z,4.20
2018-06-21T09:19:08.051Z,5.07
2018-06-21T09:21:41.182Z,4.43
2018-06-21T09:24:13.236Z,3.70
2018-06-21T09:26:45.327Z,3.83
2018-06-21T09:29:17.497Z,3.57
2018-06-21T09:31:49.604Z,3.90
2018-06-21T09:34:21.719Z,3.47
2018-06-21T09:36:53.768Z,3.17
2018-06-21T09:39:31.437Z,5.70
2018-06-21T09:42:09.088Z,3.57
2018-06-21T09:45:01.922Z,4.07
2018-06-21T09:47:39.621Z,7.03
2018-06-21T09:50:16.211Z,3.40
2018-06-21T09:52:48.308Z,3.10
2018-06-21T09:55:20.375Z,3.87
2018-06-21T09:57:52.455Z,5.70
2018-06-21T10:00:30.295Z,3.73
2018-06-21T10:03:02.359Z,3.83
2018-06-21T10:05:34.477Z,3.80
2018-06-21T10:08:06.554Z,3.70
2018-06-21T10:10:38.698Z,3.43
2018-06-21T10:13:10.817Z,3.87
2018-06-21T10:15:43.061Z,2.90
2018-06-21T10:18:15.143Z,3.30
2018-06-21T10:20:48.389Z,3.70
2018-06-21T10:23:20.509Z,3.10
2018-06-21T10:25:52.653Z,4.10
2018-06-21T10:28:24.756Z,4.03
2018-06-21T10:30:56.815Z,3.00
2018-06-21T10:33:28.908Z,3.83
2018-06-21T10:36:01.043Z,3.67
2018-06-21T10:38:33.294Z,4.13
2018-06-21T10:41:05.385Z,3.80
2018-06-21T10:43:37.545Z,3.77
2018-06-21T10:46:10.727Z,3.23
2018-06-21T10:48:42.871Z,3.10
2018-06-21T10:51:15.001Z,3.23
2018-06-21T10:53:47.234Z,2.70
2018-06-21T10:56:19.427Z,2.60
2018-06-21T10:58:51.534Z,3.27
2018-06-21T11:01:25.303Z,2.83
2018-06-21T11:04:04.015Z,2.97
2018-06-21T11:06:40.219Z,3.20
2018-06-21T11:09:12.341Z,3.20
2018-06-21T11:11:44.984Z,3.07
2018-06-21T11:14:17.085Z,3.07
2018-06-21T11:16:49.221Z,3.20
2018-06-21T11:19:21.299Z,3.27
2018-06-21T11:21:53.440Z,2.70
2018-06-21T11:24:25.539Z,2.80
2018-06-21T11:26:57.677Z,2.50
2018-06-21T11:29:29.933Z,2.80
2018-06-21T11:32:02.088Z,3.10
2018-06-21T11:34:36.351Z,3.33
2018-06-21T11:37:08.532Z,3.30
2018-06-21T11:39:40.843Z,3.17
2018-06-21T11:42:13.045Z,2.73
2018-06-21T11:44:45.155Z,2.87
2018-06-21T11:47:18.293Z,2.73
2018-06-21T11:49:50.489Z,2.80
2018-06-21T11:52:22.720Z,4.97
2018-06-21T11:54:55.438Z,3.23
2018-06-21T11:57:41.344Z,2.80
2018-06-21T12:00:14.146Z,3.70
2018-06-21T12:02:46.295Z,3.03
2018-06-21T12:05:18.373Z,2.90
2018-06-21T12:07:50.489Z,2.33
2018-06-21T12:10:22.634Z,2.60
2018-06-21T12:12:54.735Z,3.20
2018-06-21T12:15:26.953Z,2.23
2018-06-21T12:17:59.072Z,2.40
2018-06-21T12:20:31.237Z,2.50
2018-06-21T12:23:03.853Z,3.17
2018-06-21T12:25:37.062Z,2.70
2018-06-21T12:28:09.640Z,2.20
2018-06-21T12:30:41.982Z,2.30
2018-06-21T12:33:17.518Z,2.87
2018-06-21T12:35:53.486Z,2.70
2018-06-21T12:38:26.370Z,2.80
2018-06-21T12:40:58.856Z,3.33
2018-06-21T12:43:31.054Z,3.50
2018-06-21T12:46:03.162Z,3.07
2018-06-21T12:48:35.292Z,3.17
2018-06-21T12:51:07.551Z,2.70
2018-06-21T12:53:39.928Z,3.20
2018-06-21T12:56:12.114Z,3.30
2018-06-21T12:58:44.290Z,3.30
2018-06-21T13:01:16.421Z,2.67
2018-06-21T13:03:49.151Z,2.43
2018-06-21T13:06:21.288Z,2.47
2018-06-21T13:09:04.959Z,2.77
2018-06-21T13:12:51.697Z,2.60
2018-06-21T13:15:25.772Z,3.37
2018-06-21T13:17:57.828Z,2.93
2018-06-21T13:20:29.929Z,2.40
2018-06-21T13:23:02.095Z,2.57
2018-06-21T13:25:34.261Z,2.43
2018-06-21T13:28:06.579Z,2.30
2018-06-21T13:30:38.696Z,2.00
2018-06-21T13:33:10.987Z,1.90
2018-06-21T13:35:43.235Z,2.40
2018-06-21T13:38:15.356Z,2.30
2018-06-21T13:40:47.482Z,6.17
2018-06-21T13:43:20.763Z,2.43
2018-06-21T13:45:52.887Z,2.50
2018-06-21T13:48:25.066Z,2.10
2018-06-21T13:50:57.230Z,2.60
2018-06-21T13:53:29.375Z,2.77
2018-06-21T13:56:01.540Z,2.80
2018-06-21T13:58:33.858Z,2.83
2018-06-21T14:01:05.975Z,2.90
2018-06-21T14:03:38.068Z,3.10
2018-06-21T14:06:10.220Z,3.00
2018-06-21T14:08:42.426Z,2.80
2018-06-21T14:11:14.456Z,3.37
2018-06-21T14:13:46.548Z,2.80
2018-06-21T14:16:18.649Z,3.13
2018-06-21T14:18:50.792Z,2.70
2018-06-21T14:21:23.132Z,2.90
2018-06-21T14:23:55.849Z,2.43
2018-06-21T14:26:27.923Z,2.57
2018-06-21T14:29:00.056Z,2.80
2018-06-21T14:31:32.182Z,2.90
2018-06-21T14:34:04.312Z,2.67
2018-06-21T14:36:36.500Z,2.60
2018-06-21T14:39:09.106Z,2.47
2018-06-21T14:41:41.367Z,3.20
2018-06-21T14:44:13.572Z,2.00
2018-06-21T14:46:45.683Z,2.47
2018-06-21T14:49:17.811Z,2.20
2018-06-21T14:51:49.972Z,2.50
2018-06-21T14:54:22.089Z,2.20
2018-06-21T14:56:54.232Z,1.70
2018-06-21T14:59:26.303Z,1.87
2018-06-21T15:01:58.475Z,1.70
2018-06-21T15:04:30.653Z,1.90
2018-06-21T15:07:02.844Z,2.40
2018-06-21T15:09:35.090Z,1.90
2018-06-21T15:12:07.181Z,1.90
2018-06-21T15:14:39.318Z,1.90
2018-06-21T15:17:11.400Z,1.80
2018-06-21T15:19:43.546Z,1.90
2018-06-21T15:22:15.636Z,2.40
2018-06-21T15:24:47.791Z,2.20
2018-06-21T15:27:19.948Z,1.83
2018-06-21T15:29:52.305Z,2.13
2018-06-21T15:32:24.448Z,2.57
2018-06-21T15:34:56.561Z,1.87
2018-06-21T15:37:28.728Z,2.57
2018-06-21T15:40:00.919Z,2.33
2018-06-21T15:42:33.140Z,2.10
2018-06-21T15:45:05.332Z,2.20
2018-06-21T15:47:37.529Z,2.00
2018-06-21T15:50:09.723Z,2.40
2018-06-21T15:52:41.853Z,2.60
2018-06-21T15:55:13.941Z,2.30
2018-06-21T15:57:46.000Z,2.20
2018-06-21T16:00:18.212Z,2.17
2018-06-21T16:02:50.567Z,2.70
2018-06-21T16:05:22.709Z,2.57
2018-06-21T16:07:54.829Z,2.70
2018-06-21T16:10:26.901Z,2.53
2018-06-21T16:12:59.293Z,2.40
2018-06-21T16:15:31.418Z,2.70
2018-06-21T16:18:03.709Z,2.40
2018-06-21T16:20:35.867Z,2.60
2018-06-21T16:23:08.095Z,3.00
2018-06-21T16:25:40.333Z,2.63
2018-06-21T16:28:14.709Z,3.00
2018-06-21T16:30:46.919Z,2.63
2018-06-21T16:33:21.121Z,2.97
2018-06-21T16:35:53.184Z,2.80
2018-06-21T16:38:25.315Z,3.23
2018-06-21T16:40:57.440Z,4.27
2018-06-21T16:43:29.426Z,3.10
2018-06-21T16:46:01.566Z,3.67
2018-06-21T16:48:33.759Z,3.87
2018-06-21T16:51:05.965Z,3.20
2018-06-21T16:53:38.094Z,3.80
2018-06-21T16:56:11.387Z,3.50
2018-06-21T16:58:44.058Z,3.43
2018-06-21T17:01:16.426Z,3.70
2018-06-21T17:03:48.700Z,3.37
2018-06-21T17:06:22.917Z,3.57
2018-06-21T17:08:54.985Z,3.53
2018-06-21T17:11:27.087Z,2.90
2018-06-21T17:13:59.207Z,3.23
2018-06-21T17:16:31.416Z,2.93
2018-06-21T17:19:04.960Z,3.33
2018-06-21T17:21:37.338Z,2.67
2018-06-21T17:24:09.486Z,2.93
2018-06-21T17:26:41.581Z,2.53
2018-06-21T17:29:14.101Z,2.83
2018-06-21T17:31:46.751Z,2.50
2018-06-21T17:34:19.049Z,2.43
2018-06-21T17:36:51.201Z,2.60
2018-06-21T17:39:23.179Z,2.93
2018-06-21T17:41:55.515Z,2.80
2018-06-21T17:44:27.789Z,3.10
2018-06-21T17:46:59.972Z,3.07
2018-06-21T17:49:32.072Z,3.00
2018-06-21T17:52:05.099Z,2.83
2018-06-21T17:54:37.493Z,2.87
2018-06-21T17:57:09.631Z,3.20
2018-06-21T17:59:41.732Z,3.17
2018-06-21T18:02:13.960Z,3.40
2018-06-21T18:04:46.020Z,3.30
2018-06-21T18:07:18.251Z,3.30
2018-06-21T18:09:50.507Z,4.70
2018-06-21T18:12:22.603Z,4.00
2018-06-21T18:14:54.678Z,4.20
2018-06-21T18:17:26.765Z,3.87
2018-06-21T18:19:58.842Z,4.27
2018-06-21T18:22:30.936Z,3.90
2018-06-21T18:25:03.361Z,4.00
2018-06-21T18:27:35.476Z,4.37
2018-06-21T18:30:07.620Z,3.90
2018-06-21T18:32:39.780Z,4.03
2018-06-21T18:35:11.872Z,4.30
2018-06-21T18:37:43.971Z,4.40
2018-06-21T18:40:16.063Z,4.10
2018-06-21T18:42:48.262Z,4.37
2018-06-21T18:45:20.347Z,4.40
2018-06-21T18:47:52.503Z,4.33
2018-06-21T18:50:24.568Z,5.30
2018-06-21T18:52:56.655Z,4.60
2018-06-21T18:55:28.766Z,5.20
2018-06-21T18:58:00.911Z,4.50
2018-06-21T19:00:33.008Z,4.47
2018-06-21T19:03:05.156Z,4.20
2018-06-21T19:05:37.262Z,4.27
2018-06-21T19:10:18.497Z,3.67
2018-06-21T19:12:50.595Z,4.23
2018-06-21T19:15:22.775Z,3.80
2018-06-21T19:17:54.840Z,3.00
2018-06-21T19:20:26.924Z,3.27
2018-06-21T19:22:59.136Z,3.60
2018-06-21T19:25:31.547Z,3.20
2018-06-21T19:28:03.688Z,3.40
2018-06-21T19:30:35.882Z,2.70
2018-06-21T19:33:08.019Z,2.70
2018-06-21T19:35:40.149Z,2.63
2018-06-21T19:38:12.281Z,3.40
2018-06-21T19:40:44.348Z,2.50
2018-06-21T19:43:16.466Z,2.57
2018-06-21T19:45:48.560Z,2.87
2018-06-21T19:48:20.634Z,1.83
2018-06-21T19:50:52.680Z,2.00
2018-06-21T19:53:24.804Z,1.93
2018-06-21T19:55:56.971Z,2.10
2018-06-21T19:58:29.068Z,1.63
2018-06-21T20:01:01.157Z,1.83
2018-06-21T20:03:33.332Z,1.80
2018-06-21T20:06:05.492Z,2.00
2018-06-21T20:08:37.608Z,1.60
2018-06-21T20:11:15.454Z,1.67
2018-06-21T20:13:49.564Z,1.73
2018-06-21T20:16:21.792Z,1.70
2018-06-21T20:18:53.949Z,1.40
2018-06-21T20:21:26.115Z,1.97
2018-06-21T20:23:58.205Z,1.90
2018-06-21T20:26:31.374Z,2.00
2018-06-21T20:29:03.491Z,2.10
2018-06-21T20:31:35.564Z,2.40
2018-06-21T20:34:07.637Z,1.60
2018-06-21T20:36:39.791Z,1.70
2018-06-21T20:39:12.076Z,1.90
2018-06-21T20:41:44.177Z,1.60
2018-06-21T20:44:16.299Z,1.53
2018-06-21T20:46:48.359Z,3.47
2018-06-21T20:49:20.431Z,1.40
2018-06-21T20:51:52.546Z,2.03
2018-06-21T20:54:24.667Z,1.57
2018-06-21T20:56:56.835Z,1.63
2018-06-21T20:59:29.055Z,1.60
2018-06-21T21:02:01.155Z,1.83
2018-06-21T21:05:09.917Z,1.90
2018-06-21T21:07:42.883Z,1.60
2018-06-21T21:10:16.094Z,1.40
2018-06-21T21:12:48.198Z,1.70
2018-06-21T21:15:20.361Z,1.37
2018-06-21T21:17:52.435Z,1.70
2018-06-21T21:20:24.582Z,2.40
2018-06-21T21:22:57.720Z,1.57
2018-06-21T21:25:29.817Z,1.60
2018-06-21T21:28:01.858Z,1.60
2018-06-21T21:30:33.940Z,1.10
2018-06-21T21:33:06.094Z,1.37
2018-06-21T21:35:38.197Z,1.60
2018-06-21T21:38:10.315Z,1.60
2018-06-21T21:40:42.419Z,1.27
2018-06-21T21:43:14.509Z,1.20
2018-06-21T21:45:46.616Z,1.30
2018-06-21T21:48:18.703Z,1.53
2018-06-21T21:50:50.772Z,1.20
2018-06-21T21:53:22.873Z,1.33
2018-06-21T21:55:54.969Z,1.70
2018-06-21T21:58:27.057Z,1.50
2018-06-21T22:00:59.276Z,1.13
2018-06-21T22:03:31.407Z,1.17
2018-06-21T22:06:03.513Z,1.50
2018-06-21T22:08:35.605Z,1.20
2018-06-21T22:11:07.728Z,1.20
2018-06-21T22:13:39.818Z,1.33
2018-06-21T22:16:11.899Z,1.27
2018-06-21T22:18:44.004Z,1.20
2018-06-21T22:21:16.131Z,1.20
2018-06-21T22:23:48.169Z,1.57
2018-06-21T22:26:20.263Z,1.70
2018-06-21T22:28:52.356Z,1.13
2018-06-21T22:31:24.451Z,0.93
2018-06-21T22:33:56.481Z,1.20
2018-06-21T22:36:28.606Z,1.00
2018-06-21T22:39:00.696Z,1.30
2018-06-21T22:41:32.773Z,1.27
2018-06-21T22:44:04.878Z,1.40
2018-06-21T22:46:36.948Z,1.00
2018-06-21T22:49:09.496Z,1.20
2018-06-21T22:51:41.617Z,1.10
2018-06-21T22:54:13.780Z,1.03
2018-06-21T22:56:45.891Z,1.00
2018-06-21T22:59:17.977Z,1.20
2018-06-21T23:01:50.107Z,0.93
2018-06-21T23:04:22.256Z,1.40
2018-06-21T23:06:54.371Z,1.40
2018-06-21T23:09:26.468Z,1.00
2018-06-21T23:11:58.559Z,1.20
2018-06-21T23:14:30.672Z,1.57
2018-06-21T23:17:02.767Z,1.00
2018-06-21T23:19:34.835Z,0.80
2018-06-21T23:22:06.903Z,1.03
2018-06-21T23:24:38.965Z,0.83
2018-06-21T23:27:11.027Z,1.03
2018-06-21T23:29:43.143Z,0.90
2018-06-21T23:32:15.225Z,0.90
2018-06-21T23:34:47.287Z,1.20
2018-06-21T23:37:19.388Z,1.33
2018-06-21T23:39:51.469Z,1.10
2018-06-21T23:42:23.537Z,1.07
2018-06-21T23:44:55.597Z,1.37
2018-06-21T23:47:27.676Z,1.20
2018-06-21T23:49:59.748Z,1.00
2018-06-21T23:52:31.860Z,0.80
2018-06-21T23:55:03.967Z,1.00
2018-06-21T23:57:36.024Z,1.10
